sensor_id;sensor_type;location;lat;lon;timestamp;pressure;altitude;pressure_sealevel;temperature;humidity
84022;BME280;74108;48.636;9.492;2024-02-28T00:00:24;97730.53;;;8.98;75.06
84022;BME280;74108;48.636;9.492;2024-02-28T00:02:50;97730.13;;;8.89;75.10
84022;BME280;74108;48.636;9.492;2024-02-28T00:05:15;97733.38;;;8.80;76.14
84022;BME280;74108;48.636;9.492;2024-02-28T00:07:40;97735.84;;;8.86;75.89
84022;BME280;74108;48.636;9.492;2024-02-28T00:10:06;97736.16;;;8.90;75.87
84022;BME280;74108;48.636;9.492;2024-02-28T00:12:32;97729.28;;;8.84;76.28
84022;BME280;74108;48.636;9.492;2024-02-28T00:14:57;97736.38;;;8.72;75.96
84022;BME280;74108;48.636;9.492;2024-02-28T00:17:22;97731.53;;;8.64;76.18
84022;BME280;74108;48.636;9.492;2024-02-28T00:19:48;97737.47;;;8.59;76.70
84022;BME280;74108;48.636;9.492;2024-02-28T00:22:13;97736.44;;;8.60;76.10
84022;BME280;74108;48.636;9.492;2024-02-28T00:24:40;97746.97;;;8.65;75.75
84022;BME280;74108;48.636;9.492;2024-02-28T00:27:05;97741.75;;;8.65;75.53
84022;BME280;74108;48.636;9.492;2024-02-28T00:29:31;97743.16;;;8.73;75.95
84022;BME280;74108;48.636;9.492;2024-02-28T00:31:56;97734.16;;;8.80;76.05
84022;BME280;74108;48.636;9.492;2024-02-28T00:34:21;97737.66;;;8.86;75.21
84022;BME280;74108;48.636;9.492;2024-02-28T00:36:47;97738.47;;;8.86;75.41
84022;BME280;74108;48.636;9.492;2024-02-28T00:39:12;97738.22;;;8.88;75.64
84022;BME280;74108;48.636;9.492;2024-02-28T00:41:37;97746.44;;;8.80;76.25
84022;BME280;74108;48.636;9.492;2024-02-28T00:44:03;97739.25;;;8.70;76.79
84022;BME280;74108;48.636;9.492;2024-02-28T00:46:28;97743.97;;;8.73;76.70
84022;BME280;74108;48.636;9.492;2024-02-28T00:48:54;97746.97;;;8.65;77.17
84022;BME280;74108;48.636;9.492;2024-02-28T00:51:19;97742.91;;;8.58;76.74
84022;BME280;74108;48.636;9.492;2024-02-28T00:53:44;97740.31;;;8.58;77.01
84022;BME280;74108;48.636;9.492;2024-02-28T00:56:10;97741.31;;;8.57;77.41
84022;BME280;74108;48.636;9.492;2024-02-28T00:58:35;97744.44;;;8.54;78.01
84022;BME280;74108;48.636;9.492;2024-02-28T01:01:01;97748.09;;;8.41;77.89
84022;BME280;74108;48.636;9.492;2024-02-28T01:03:26;97749.59;;;8.37;78.92
84022;BME280;74108;48.636;9.492;2024-02-28T01:05:51;97736.81;;;8.24;79.01
84022;BME280;74108;48.636;9.492;2024-02-28T01:08:17;97743.97;;;8.28;78.71
84022;BME280;74108;48.636;9.492;2024-02-28T01:10:43;97749.34;;;8.38;78.00
84022;BME280;74108;48.636;9.492;2024-02-28T01:13:10;97749.78;;;8.47;78.89
84022;BME280;74108;48.636;9.492;2024-02-28T01:15:35;97743.44;;;8.43;78.01
84022;BME280;74108;48.636;9.492;2024-02-28T01:18:01;97741.78;;;8.37;77.75
84022;BME280;74108;48.636;9.492;2024-02-28T01:20:26;97738.25;;;8.31;77.88
84022;BME280;74108;48.636;9.492;2024-02-28T01:22:52;97741.66;;;8.32;78.47
84022;BME280;74108;48.636;9.492;2024-02-28T01:25:17;97737.00;;;8.34;78.11
84022;BME280;74108;48.636;9.492;2024-02-28T01:27:43;97739.09;;;8.48;77.78
84022;BME280;74108;48.636;9.492;2024-02-28T01:30:09;97742.81;;;8.53;77.31
84022;BME280;74108;48.636;9.492;2024-02-28T01:32:38;97737.75;;;8.46;77.36
84022;BME280;74108;48.636;9.492;2024-02-28T01:35:03;97745.44;;;8.53;77.45
84022;BME280;74108;48.636;9.492;2024-02-28T01:37:29;97748.59;;;8.55;77.20
84022;BME280;74108;48.636;9.492;2024-02-28T01:39:55;97752.34;;;8.59;77.18
84022;BME280;74108;48.636;9.492;2024-02-28T01:42:20;97751.88;;;8.62;76.59
84022;BME280;74108;48.636;9.492;2024-02-28T01:44:48;97752.91;;;8.61;76.33
84022;BME280;74108;48.636;9.492;2024-02-28T01:47:17;97753.50;;;8.51;77.00
84022;BME280;74108;48.636;9.492;2024-02-28T01:49:43;97759.19;;;8.48;77.76
84022;BME280;74108;48.636;9.492;2024-02-28T01:52:11;97759.03;;;8.38;77.96
84022;BME280;74108;48.636;9.492;2024-02-28T01:54:38;97760.03;;;8.37;78.18
84022;BME280;74108;48.636;9.492;2024-02-28T01:57:04;97759.91;;;8.43;77.31
84022;BME280;74108;48.636;9.492;2024-02-28T01:59:31;97761.63;;;8.38;77.44
84022;BME280;74108;48.636;9.492;2024-02-28T02:01:57;97768.13;;;8.35;77.00
84022;BME280;74108;48.636;9.492;2024-02-28T02:04:22;97770.50;;;8.37;78.03
84022;BME280;74108;48.636;9.492;2024-02-28T02:06:48;97776.56;;;8.54;76.59
84022;BME280;74108;48.636;9.492;2024-02-28T02:09:15;97778.72;;;8.45;77.20
84022;BME280;74108;48.636;9.492;2024-02-28T02:11:41;97775.38;;;8.62;77.22
84022;BME280;74108;48.636;9.492;2024-02-28T02:14:06;97788.97;;;8.64;76.95
84022;BME280;74108;48.636;9.492;2024-02-28T02:16:32;97790.72;;;8.58;76.35
84022;BME280;74108;48.636;9.492;2024-02-28T02:18:58;97790.63;;;8.53;77.27
84022;BME280;74108;48.636;9.492;2024-02-28T02:21:26;97793.34;;;8.58;77.79
84022;BME280;74108;48.636;9.492;2024-02-28T02:23:52;97795.47;;;8.61;76.48
84022;BME280;74108;48.636;9.492;2024-02-28T02:26:18;97803.00;;;8.58;77.72
84022;BME280;74108;48.636;9.492;2024-02-28T02:28:43;97799.47;;;8.52;78.00
84022;BME280;74108;48.636;9.492;2024-02-28T02:31:11;97804.81;;;8.57;77.85
84022;BME280;74108;48.636;9.492;2024-02-28T02:33:37;97804.69;;;8.52;77.16
84022;BME280;74108;48.636;9.492;2024-02-28T02:36:02;97815.03;;;8.59;77.64
84022;BME280;74108;48.636;9.492;2024-02-28T02:38:28;97817.41;;;8.60;77.40
84022;BME280;74108;48.636;9.492;2024-02-28T02:40:53;97810.13;;;8.62;76.77
84022;BME280;74108;48.636;9.492;2024-02-28T02:43:18;97819.06;;;8.66;76.75
84022;BME280;74108;48.636;9.492;2024-02-28T02:45:44;97810.13;;;8.62;76.95
84022;BME280;74108;48.636;9.492;2024-02-28T02:48:10;97821.38;;;8.63;76.63
84022;BME280;74108;48.636;9.492;2024-02-28T02:50:36;97816.03;;;8.58;76.79
84022;BME280;74108;48.636;9.492;2024-02-28T02:53:02;97824.78;;;8.63;77.44
84022;BME280;74108;48.636;9.492;2024-02-28T02:55:28;97822.06;;;8.58;77.20
84022;BME280;74108;48.636;9.492;2024-02-28T02:57:54;97829.47;;;8.49;77.80
84022;BME280;74108;48.636;9.492;2024-02-28T03:00:20;97824.72;;;8.46;78.71
84022;BME280;74108;48.636;9.492;2024-02-28T03:02:46;97831.09;;;8.39;77.83
84022;BME280;74108;48.636;9.492;2024-02-28T03:05:11;97833.69;;;8.39;78.02
84022;BME280;74108;48.636;9.492;2024-02-28T03:07:36;97839.28;;;8.42;78.13
84022;BME280;74108;48.636;9.492;2024-02-28T03:10:02;97836.38;;;8.56;76.77
84022;BME280;74108;48.636;9.492;2024-02-28T03:12:28;97840.91;;;8.60;76.76
84022;BME280;74108;48.636;9.492;2024-02-28T03:14:53;97836.34;;;8.67;76.55
84022;BME280;74108;48.636;9.492;2024-02-28T03:17:19;97842.56;;;8.66;76.36
84022;BME280;74108;48.636;9.492;2024-02-28T03:19:44;97844.88;;;8.63;75.81
84022;BME280;74108;48.636;9.492;2024-02-28T03:22:10;97845.31;;;8.60;76.08
84022;BME280;74108;48.636;9.492;2024-02-28T03:24:35;97858.50;;;8.65;75.61
84022;BME280;74108;48.636;9.492;2024-02-28T03:27:04;97857.38;;;8.61;76.03
84022;BME280;74108;48.636;9.492;2024-02-28T03:29:29;97859.28;;;8.65;75.44
84022;BME280;74108;48.636;9.492;2024-02-28T03:31:55;97867.13;;;8.65;75.20
84022;BME280;74108;48.636;9.492;2024-02-28T03:34:20;97865.94;;;8.73;75.50
84022;BME280;74108;48.636;9.492;2024-02-28T03:36:46;97862.47;;;8.67;76.19
84022;BME280;74108;48.636;9.492;2024-02-28T03:39:11;97871.00;;;8.63;75.99
84022;BME280;74108;48.636;9.492;2024-02-28T03:41:37;97877.91;;;8.57;76.67
84022;BME280;74108;48.636;9.492;2024-02-28T03:44:03;97881.50;;;8.39;78.43
84022;BME280;74108;48.636;9.492;2024-02-28T03:46:29;97887.28;;;8.30;78.15
84022;BME280;74108;48.636;9.492;2024-02-28T03:48:54;97886.16;;;8.26;78.18
84022;BME280;74108;48.636;9.492;2024-02-28T03:51:19;97883.41;;;8.21;78.31
84022;BME280;74108;48.636;9.492;2024-02-28T03:53:45;97882.53;;;8.27;77.35
84022;BME280;74108;48.636;9.492;2024-02-28T03:56:10;97887.97;;;8.37;77.55
84022;BME280;74108;48.636;9.492;2024-02-28T03:58:36;97883.88;;;8.41;78.01
84022;BME280;74108;48.636;9.492;2024-02-28T04:01:02;97883.88;;;8.41;77.27
84022;BME280;74108;48.636;9.492;2024-02-28T04:03:28;97877.63;;;8.42;77.08
84022;BME280;74108;48.636;9.492;2024-02-28T04:05:54;97876.59;;;8.31;76.95
84022;BME280;74108;48.636;9.492;2024-02-28T04:08:19;97877.31;;;8.27;76.59
84022;BME280;74108;48.636;9.492;2024-02-28T04:10:44;97877.28;;;8.15;77.50
84022;BME280;74108;48.636;9.492;2024-02-28T04:13:10;97881.38;;;8.11;77.09
84022;BME280;74108;48.636;9.492;2024-02-28T04:15:35;97878.66;;;8.06;76.72
84022;BME280;74108;48.636;9.492;2024-02-28T04:18:01;97882.88;;;7.96;77.46
84022;BME280;74108;48.636;9.492;2024-02-28T04:20:26;97891.81;;;7.76;78.54
84022;BME280;74108;48.636;9.492;2024-02-28T04:22:51;97885.47;;;7.84;78.46
84022;BME280;74108;48.636;9.492;2024-02-28T04:25:17;97881.19;;;7.78;78.01
84022;BME280;74108;48.636;9.492;2024-02-28T04:27:42;97887.84;;;7.74;78.68
84022;BME280;74108;48.636;9.492;2024-02-28T04:30:09;97886.59;;;7.76;77.68
84022;BME280;74108;48.636;9.492;2024-02-28T04:32:34;97893.88;;;7.86;76.80
84022;BME280;74108;48.636;9.492;2024-02-28T04:35:00;97899.88;;;7.98;77.01
84022;BME280;74108;48.636;9.492;2024-02-28T04:37:26;97897.97;;;7.94;77.57
84022;BME280;74108;48.636;9.492;2024-02-28T04:39:51;97902.25;;;8.00;76.82
84022;BME280;74108;48.636;9.492;2024-02-28T04:42:16;97908.03;;;8.13;76.08
84022;BME280;74108;48.636;9.492;2024-02-28T04:44:42;97904.19;;;8.16;76.41
84022;BME280;74108;48.636;9.492;2024-02-28T04:47:07;97910.09;;;8.23;76.09
84022;BME280;74108;48.636;9.492;2024-02-28T04:49:36;97910.88;;;8.23;76.50
84022;BME280;74108;48.636;9.492;2024-02-28T04:52:02;97914.66;;;8.27;76.53
84022;BME280;74108;48.636;9.492;2024-02-28T04:54:27;97917.50;;;8.26;76.03
84022;BME280;74108;48.636;9.492;2024-02-28T04:56:52;97913.25;;;8.25;76.69
84022;BME280;74108;48.636;9.492;2024-02-28T04:59:18;97917.81;;;8.29;75.88
84022;BME280;74108;48.636;9.492;2024-02-28T05:01:43;97915.56;;;8.33;76.17
84022;BME280;74108;48.636;9.492;2024-02-28T05:04:10;97919.19;;;8.32;75.91
84022;BME280;74108;48.636;9.492;2024-02-28T05:06:36;97920.44;;;8.29;75.64
84022;BME280;74108;48.636;9.492;2024-02-28T05:09:02;97918.06;;;8.28;75.68
84022;BME280;74108;48.636;9.492;2024-02-28T05:11:27;97925.97;;;8.21;78.15
84022;BME280;74108;48.636;9.492;2024-02-28T05:13:53;97932.56;;;8.12;78.51
84022;BME280;74108;48.636;9.492;2024-02-28T05:16:18;97935.19;;;8.12;77.64
84022;BME280;74108;48.636;9.492;2024-02-28T05:18:44;97941.63;;;8.21;76.73
84022;BME280;74108;48.636;9.492;2024-02-28T05:21:10;97937.34;;;8.27;76.82
84022;BME280;74108;48.636;9.492;2024-02-28T05:23:35;97934.81;;;8.20;76.06
84022;BME280;74108;48.636;9.492;2024-02-28T05:26:02;97939.25;;;8.20;76.06
84022;BME280;74108;48.636;9.492;2024-02-28T05:28:30;97938.09;;;8.16;76.54
84022;BME280;74108;48.636;9.492;2024-02-28T05:30:56;97945.25;;;8.20;75.95
84022;BME280;74108;48.636;9.492;2024-02-28T05:33:21;97942.56;;;8.27;75.17
84022;BME280;74108;48.636;9.492;2024-02-28T05:35:46;97951.44;;;8.26;74.91
84022;BME280;74108;48.636;9.492;2024-02-28T05:38:12;97955.16;;;8.30;74.66
84022;BME280;74108;48.636;9.492;2024-02-28T05:40:37;97946.78;;;8.28;75.30
84022;BME280;74108;48.636;9.492;2024-02-28T05:43:02;97956.25;;;8.22;75.34
84022;BME280;74108;48.636;9.492;2024-02-28T05:45:29;97970.78;;;8.18;75.38
84022;BME280;74108;48.636;9.492;2024-02-28T05:47:55;97969.47;;;8.27;75.14
84022;BME280;74108;48.636;9.492;2024-02-28T05:50:20;97971.28;;;8.27;74.80
84022;BME280;74108;48.636;9.492;2024-02-28T05:52:45;97977.53;;;8.26;75.05
84022;BME280;74108;48.636;9.492;2024-02-28T05:55:11;97982.16;;;8.24;74.71
84022;BME280;74108;48.636;9.492;2024-02-28T05:57:37;97982.06;;;8.30;74.46
84022;BME280;74108;48.636;9.492;2024-02-28T06:00:03;97987.84;;;8.32;74.59
84022;BME280;74108;48.636;9.492;2024-02-28T06:02:37;97988.41;;;8.34;74.13
84022;BME280;74108;48.636;9.492;2024-02-28T06:05:03;97988.66;;;8.33;74.08
84022;BME280;74108;48.636;9.492;2024-02-28T06:07:28;97990.78;;;8.36;74.25
84022;BME280;74108;48.636;9.492;2024-02-28T06:09:54;97982.63;;;8.32;74.64
84022;BME280;74108;48.636;9.492;2024-02-28T06:12:19;97987.72;;;8.39;74.41
84022;BME280;74108;48.636;9.492;2024-02-28T06:14:44;97996.38;;;8.51;73.67
84022;BME280;74108;48.636;9.492;2024-02-28T06:17:10;97998.97;;;8.51;73.79
84022;BME280;74108;48.636;9.492;2024-02-28T06:19:35;97998.41;;;8.49;73.74
84022;BME280;74108;48.636;9.492;2024-02-28T06:22:00;98003.16;;;8.52;72.63
84022;BME280;74108;48.636;9.492;2024-02-28T06:24:26;98010.66;;;8.48;73.73
84022;BME280;74108;48.636;9.492;2024-02-28T06:26:51;98005.69;;;8.47;73.49
84022;BME280;74108;48.636;9.492;2024-02-28T06:29:17;98006.38;;;8.42;74.48
84022;BME280;74108;48.636;9.492;2024-02-28T06:31:42;98006.69;;;8.34;74.38
84022;BME280;74108;48.636;9.492;2024-02-28T06:34:07;98008.63;;;8.27;74.44
84022;BME280;74108;48.636;9.492;2024-02-28T06:36:33;98017.34;;;8.21;74.05
84022;BME280;74108;48.636;9.492;2024-02-28T06:38:58;98024.34;;;8.09;74.30
84022;BME280;74108;48.636;9.492;2024-02-28T06:41:23;98028.44;;;8.05;74.39
84022;BME280;74108;48.636;9.492;2024-02-28T06:43:49;98029.41;;;7.93;74.35
84022;BME280;74108;48.636;9.492;2024-02-28T06:46:14;98041.31;;;7.89;73.74
84022;BME280;74108;48.636;9.492;2024-02-28T06:48:40;98040.31;;;7.90;73.22
84022;BME280;74108;48.636;9.492;2024-02-28T06:51:05;98033.94;;;7.86;74.13
84022;BME280;74108;48.636;9.492;2024-02-28T06:53:30;98050.63;;;7.85;73.58
84022;BME280;74108;48.636;9.492;2024-02-28T06:55:56;98049.38;;;7.87;73.54
84022;BME280;74108;48.636;9.492;2024-02-28T06:58:21;98060.59;;;7.88;74.75
84022;BME280;74108;48.636;9.492;2024-02-28T07:00:50;98066.94;;;7.80;74.10
84022;BME280;74108;48.636;9.492;2024-02-28T07:03:15;98053.97;;;7.73;73.84
84022;BME280;74108;48.636;9.492;2024-02-28T07:05:41;98071.56;;;7.78;73.70
84022;BME280;74108;48.636;9.492;2024-02-28T07:08:06;98076.16;;;7.64;74.27
84022;BME280;74108;48.636;9.492;2024-02-28T07:10:31;98075.47;;;7.69;74.08
84022;BME280;74108;48.636;9.492;2024-02-28T07:12:57;98078.03;;;7.75;74.46
84022;BME280;74108;48.636;9.492;2024-02-28T07:15:22;98085.72;;;7.70;74.07
84022;BME280;74108;48.636;9.492;2024-02-28T07:17:48;98085.75;;;7.82;74.15
84022;BME280;74108;48.636;9.492;2024-02-28T07:20:13;98090.59;;;7.78;73.59
84022;BME280;74108;48.636;9.492;2024-02-28T07:22:39;98089.88;;;7.90;74.09
84022;BME280;74108;48.636;9.492;2024-02-28T07:25:05;98077.28;;;7.87;73.85
84022;BME280;74108;48.636;9.492;2024-02-28T07:27:32;98084.19;;;7.93;73.80
84022;BME280;74108;48.636;9.492;2024-02-28T07:29:57;98086.72;;;7.99;73.66
84022;BME280;74108;48.636;9.492;2024-02-28T07:32:23;98086.53;;;8.12;72.20
84022;BME280;74108;48.636;9.492;2024-02-28T07:34:48;98087.78;;;8.10;72.45
84022;BME280;74108;48.636;9.492;2024-02-28T07:37:14;98094.38;;;8.12;72.56
84022;BME280;74108;48.636;9.492;2024-02-28T07:39:39;98099.69;;;8.06;73.04
84022;BME280;74108;48.636;9.492;2024-02-28T07:42:04;98099.81;;;8.22;72.15
84022;BME280;74108;48.636;9.492;2024-02-28T07:44:30;98098.91;;;8.17;72.88
84022;BME280;74108;48.636;9.492;2024-02-28T07:46:59;98098.16;;;8.28;72.30
84022;BME280;74108;48.636;9.492;2024-02-28T07:49:24;98090.66;;;8.31;72.31
84022;BME280;74108;48.636;9.492;2024-02-28T07:51:50;98099.81;;;8.22;72.43
84022;BME280;74108;48.636;9.492;2024-02-28T07:54:16;98107.00;;;8.27;72.17
84022;BME280;74108;48.636;9.492;2024-02-28T07:56:41;98106.81;;;8.28;72.08
84022;BME280;74108;48.636;9.492;2024-02-28T07:59:06;98099.56;;;8.42;71.27
84022;BME280;74108;48.636;9.492;2024-02-28T08:01:33;98107.44;;;8.24;72.12
84022;BME280;74108;48.636;9.492;2024-02-28T08:03:58;98106.16;;;8.44;71.08
84022;BME280;74108;48.636;9.492;2024-02-28T08:06:25;98109.44;;;8.40;71.21
84022;BME280;74108;48.636;9.492;2024-02-28T08:08:50;98108.63;;;8.39;71.36
84022;BME280;74108;48.636;9.492;2024-02-28T08:11:16;98102.19;;;8.54;70.87
84022;BME280;74108;48.636;9.492;2024-02-28T08:13:41;98107.75;;;8.57;71.11
84022;BME280;74108;48.636;9.492;2024-02-28T08:16:09;98111.72;;;8.48;71.46
84022;BME280;74108;48.636;9.492;2024-02-28T08:18:34;98114.09;;;8.61;70.66
84022;BME280;74108;48.636;9.492;2024-02-28T08:21:00;98123.88;;;8.54;71.02
84022;BME280;74108;48.636;9.492;2024-02-28T08:23:27;98128.97;;;8.49;70.98
84022;BME280;74108;48.636;9.492;2024-02-28T08:25:52;98125.19;;;8.33;70.97
84022;BME280;74108;48.636;9.492;2024-02-28T08:28:18;98122.59;;;8.45;71.61
84022;BME280;74108;48.636;9.492;2024-02-28T08:30:43;98121.59;;;8.58;70.63
84022;BME280;74108;48.636;9.492;2024-02-28T08:33:09;98123.41;;;8.57;70.76
84022;BME280;74108;48.636;9.492;2024-02-28T08:35:35;98126.16;;;8.62;70.60
84022;BME280;74108;48.636;9.492;2024-02-28T08:38:01;98130.25;;;8.58;70.67
84022;BME280;74108;48.636;9.492;2024-02-28T08:40:28;98130.47;;;8.68;71.03
84022;BME280;74108;48.636;9.492;2024-02-28T08:42:54;98127.16;;;8.73;70.49
84022;BME280;74108;48.636;9.492;2024-02-28T08:45:19;98133.44;;;8.83;70.05
84022;BME280;74108;48.636;9.492;2024-02-28T08:47:45;98124.78;;;8.71;70.40
84022;BME280;74108;48.636;9.492;2024-02-28T08:50:10;98138.31;;;8.68;70.24
84022;BME280;74108;48.636;9.492;2024-02-28T08:52:36;98135.00;;;8.73;70.22
84022;BME280;74108;48.636;9.492;2024-02-28T08:55:01;98129.69;;;8.68;70.07
84022;BME280;74108;48.636;9.492;2024-02-28T08:57:28;98127.78;;;8.75;69.93
84022;BME280;74108;48.636;9.492;2024-02-28T08:59:55;98140.25;;;8.84;69.36
84022;BME280;74108;48.636;9.492;2024-02-28T09:02:21;98139.13;;;8.80;70.16
84022;BME280;74108;48.636;9.492;2024-02-28T09:04:47;98135.94;;;8.90;69.16
84022;BME280;74108;48.636;9.492;2024-02-28T09:07:17;98136.19;;;8.77;69.76
84022;BME280;74108;48.636;9.492;2024-02-28T09:09:46;98142.84;;;8.84;69.12
84022;BME280;74108;48.636;9.492;2024-02-28T09:12:11;98134.69;;;8.81;69.30
84022;BME280;74108;48.636;9.492;2024-02-28T09:14:37;98144.13;;;8.70;69.42
84022;BME280;74108;48.636;9.492;2024-02-28T09:17:03;98141.28;;;8.72;69.95
84022;BME280;74108;48.636;9.492;2024-02-28T09:19:29;98147.19;;;8.90;69.07
84022;BME280;74108;48.636;9.492;2024-02-28T09:21:55;98146.28;;;8.85;68.75
84022;BME280;74108;48.636;9.492;2024-02-28T09:24:20;98149.69;;;8.85;69.20
84022;BME280;74108;48.636;9.492;2024-02-28T09:26:46;98152.75;;;8.94;68.47
84022;BME280;74108;48.636;9.492;2024-02-28T09:29:11;98152.63;;;8.89;69.34
84022;BME280;74108;48.636;9.492;2024-02-28T09:31:36;98157.81;;;8.66;70.23
84022;BME280;74108;48.636;9.492;2024-02-28T09:34:02;98158.53;;;8.73;70.59
84022;BME280;74108;48.636;9.492;2024-02-28T09:36:32;98155.81;;;8.68;70.51
84022;BME280;74108;48.636;9.492;2024-02-28T09:38:58;98162.63;;;8.80;70.10
84022;BME280;74108;48.636;9.492;2024-02-28T09:41:24;98161.38;;;8.83;69.24
84022;BME280;74108;48.636;9.492;2024-02-28T09:43:52;98157.09;;;8.88;69.14
84022;BME280;74108;48.636;9.492;2024-02-28T09:46:17;98162.31;;;8.77;69.86
84022;BME280;74108;48.636;9.492;2024-02-28T09:48:43;98166.47;;;8.66;70.99
84022;BME280;74108;48.636;9.492;2024-02-28T09:51:15;98168.28;;;8.66;71.15
84022;BME280;74108;48.636;9.492;2024-02-28T09:53:43;98166.84;;;8.81;69.77
84022;BME280;74108;48.636;9.492;2024-02-28T09:56:08;98171.41;;;8.86;69.64
84022;BME280;74108;48.636;9.492;2024-02-28T09:58:34;98172.97;;;8.87;70.06
84022;BME280;74108;48.636;9.492;2024-02-28T10:01:02;98178.69;;;8.95;70.00
84022;BME280;74108;48.636;9.492;2024-02-28T10:03:28;98179.94;;;8.93;69.76
84022;BME280;74108;48.636;9.492;2024-02-28T10:05:55;98175.81;;;8.97;69.35
84022;BME280;74108;48.636;9.492;2024-02-28T10:08:20;98179.34;;;8.91;69.10
84022;BME280;74108;48.636;9.492;2024-02-28T10:10:49;98179.69;;;8.94;69.28
84022;BME280;74108;48.636;9.492;2024-02-28T10:13:17;98184.22;;;8.99;69.40
84022;BME280;74108;48.636;9.492;2024-02-28T10:15:43;98185.03;;;8.99;70.14
84022;BME280;74108;48.636;9.492;2024-02-28T10:18:09;98194.91;;;8.86;70.27
84022;BME280;74108;48.636;9.492;2024-02-28T10:20:34;98193.75;;;8.82;71.04
84022;BME280;74108;48.636;9.492;2024-02-28T10:23:04;98197.97;;;8.41;72.71
84022;BME280;74108;48.636;9.492;2024-02-28T10:25:30;98194.69;;;8.46;72.57
84022;BME280;74108;48.636;9.492;2024-02-28T10:28:00;98191.28;;;8.45;73.50
84022;BME280;74108;48.636;9.492;2024-02-28T10:30:26;98193.84;;;8.75;71.83
84022;BME280;74108;48.636;9.492;2024-02-28T10:32:52;98201.16;;;8.96;70.56
84022;BME280;74108;48.636;9.492;2024-02-28T10:35:18;98202.53;;;8.99;70.74
84022;BME280;74108;48.636;9.492;2024-02-28T10:37:51;98198.31;;;9.09;70.44
84022;BME280;74108;48.636;9.492;2024-02-28T10:40:16;98199.81;;;9.17;69.94
84022;BME280;74108;48.636;9.492;2024-02-28T10:42:42;98201.28;;;9.25;69.67
84022;BME280;74108;48.636;9.492;2024-02-28T10:45:11;98192.41;;;9.26;68.49
84022;BME280;74108;48.636;9.492;2024-02-28T10:47:40;98198.81;;;9.30;69.36
84022;BME280;74108;48.636;9.492;2024-02-28T10:50:06;98205.16;;;9.22;69.76
84022;BME280;74108;48.636;9.492;2024-02-28T10:52:39;98214.94;;;9.38;69.09
84022;BME280;74108;48.636;9.492;2024-02-28T10:55:09;98218.69;;;9.31;68.95
84022;BME280;74108;48.636;9.492;2024-02-28T10:57:36;98218.13;;;9.29;68.70
84022;BME280;74108;48.636;9.492;2024-02-28T11:00:02;98219.84;;;9.23;69.60
84022;BME280;74108;48.636;9.492;2024-02-28T11:02:31;98222.66;;;9.10;70.92
84022;BME280;74108;48.636;9.492;2024-02-28T11:04:56;98221.19;;;9.02;70.45
84022;BME280;74108;48.636;9.492;2024-02-28T11:07:24;98227.44;;;9.13;70.15
84022;BME280;74108;48.636;9.492;2024-02-28T11:10:05;98224.59;;;9.26;68.99
84022;BME280;74108;48.636;9.492;2024-02-28T11:12:30;98224.84;;;9.36;68.72
84022;BME280;74108;48.636;9.492;2024-02-28T11:14:59;98219.25;;;9.33;68.87
84022;BME280;74108;48.636;9.492;2024-02-28T11:17:27;98219.94;;;9.28;68.58
84022;BME280;74108;48.636;9.492;2024-02-28T11:19:53;98216.63;;;9.21;69.35
84022;BME280;74108;48.636;9.492;2024-02-28T11:22:18;98219.59;;;9.13;70.14
84022;BME280;74108;48.636;9.492;2024-02-28T11:24:46;98218.91;;;9.06;70.34
84022;BME280;74108;48.636;9.492;2024-02-28T11:27:12;98216.59;;;8.98;71.39
84022;BME280;74108;48.636;9.492;2024-02-28T11:29:41;98209.38;;;9.11;70.53
84022;BME280;74108;48.636;9.492;2024-02-28T11:32:07;98213.69;;;9.17;70.17
84022;BME280;74108;48.636;9.492;2024-02-28T11:34:36;98219.34;;;9.14;70.44
84022;BME280;74108;48.636;9.492;2024-02-28T11:37:02;98228.81;;;9.39;69.49
84022;BME280;74108;48.636;9.492;2024-02-28T11:39:29;98223.69;;;9.44;67.94
84022;BME280;74108;48.636;9.492;2024-02-28T11:41:55;98222.53;;;9.40;67.87
84022;BME280;74108;48.636;9.492;2024-02-28T11:44:20;98224.03;;;9.47;67.44
84022;BME280;74108;48.636;9.492;2024-02-28T11:46:47;98221.28;;;9.42;67.38
84022;BME280;74108;48.636;9.492;2024-02-28T11:49:13;98230.28;;;9.46;67.68
84022;BME280;74108;48.636;9.492;2024-02-28T11:51:43;98223.78;;;9.26;68.28
84022;BME280;74108;48.636;9.492;2024-02-28T11:54:09;98231.44;;;9.39;67.31
84022;BME280;74108;48.636;9.492;2024-02-28T11:56:38;98229.94;;;9.43;67.41
84022;BME280;74108;48.636;9.492;2024-02-28T11:59:04;98232.91;;;9.35;67.77
84022;BME280;74108;48.636;9.492;2024-02-28T12:01:56;98233.69;;;9.24;68.71
84022;BME280;74108;48.636;9.492;2024-02-28T12:04:24;98231.97;;;9.06;69.62
84022;BME280;74108;48.636;9.492;2024-02-28T12:06:50;98220.50;;;9.07;70.14
84022;BME280;74108;48.636;9.492;2024-02-28T12:09:17;98230.28;;;9.11;69.37
84022;BME280;74108;48.636;9.492;2024-02-28T12:11:43;98226.63;;;9.24;68.83
84022;BME280;74108;48.636;9.492;2024-02-28T12:14:10;98225.50;;;9.20;68.51
84022;BME280;74108;48.636;9.492;2024-02-28T12:16:38;98218.66;;;9.07;69.08
84022;BME280;74108;48.636;9.492;2024-02-28T12:19:11;98224.81;;;9.01;69.79
84022;BME280;74108;48.636;9.492;2024-02-28T12:21:37;98221.84;;;9.09;69.20
84022;BME280;74108;48.636;9.492;2024-02-28T12:24:03;98219.22;;;9.09;69.02
84022;BME280;74108;48.636;9.492;2024-02-28T12:26:29;98215.94;;;8.91;69.74
84022;BME280;74108;48.636;9.492;2024-02-28T12:28:55;98213.22;;;8.97;70.62
84022;BME280;74108;48.636;9.492;2024-02-28T12:31:20;98214.47;;;8.95;70.72
84022;BME280;74108;48.636;9.492;2024-02-28T12:33:47;98214.22;;;8.96;70.00
84022;BME280;74108;48.636;9.492;2024-02-28T12:36:12;98211.75;;;9.13;68.75
84022;BME280;74108;48.636;9.492;2024-02-28T12:38:39;98203.22;;;9.17;68.21
84022;BME280;74108;48.636;9.492;2024-02-28T12:41:06;98216.19;;;9.24;68.66
84022;BME280;74108;48.636;9.492;2024-02-28T12:43:32;98217.78;;;9.25;68.40
84022;BME280;74108;48.636;9.492;2024-02-28T12:45:58;98210.16;;;9.12;69.44
84022;BME280;74108;48.636;9.492;2024-02-28T12:48:24;98217.09;;;9.18;68.24
84022;BME280;74108;48.636;9.492;2024-02-28T12:50:49;98209.72;;;9.27;67.97
84022;BME280;74108;48.636;9.492;2024-02-28T12:53:15;98212.75;;;9.24;68.20
84022;BME280;74108;48.636;9.492;2024-02-28T12:55:40;98219.03;;;9.11;69.01
84022;BME280;74108;48.636;9.492;2024-02-28T12:58:07;98206.63;;;9.06;69.45
84022;BME280;74108;48.636;9.492;2024-02-28T13:00:33;98205.84;;;9.06;69.82
84022;BME280;74108;48.636;9.492;2024-02-28T13:02:58;98214.00;;;8.98;69.80